Terminal Aerodrome Forecast
Issued by NWS North Platte, NE

Home | Current Version | Previous Version | Text Only | Print | Product List | Glossary Off
Versions: 1 2 3 4 5 6 7 8 9 10 11 12 13 14 15

549
FTUS43 KLBF 171138
TAFVTN
TAF
KVTN 171138Z 1712/1812 33010KT P6SM BKN250
     FM171700 01009KT P6SM BKN050
     FM180000 03009KT P6SM -RA BKN040
     FM180200 01013G19KT P6SM -RA OVC025
     FM180600 33013G19KT P6SM OVC015
     FM180700 33013G19KT P6SM BKN040
     FM180900 31015G23KT P6SM SCT150=

USA.gov is the U.S. government's official web portal to all federal, state and local government web resources and services.